createdAt,value
2023-04-27T00:00:57.327Z,50.877235
2023-04-27T00:01:57.330Z,50.877216
2023-04-27T00:02:57.429Z,50.877132
2023-04-27T00:03:57.362Z,50.877140
2023-04-27T00:04:57.465Z,50.877140
2023-04-27T00:05:57.328Z,50.877228
2023-04-27T00:06:57.274Z,50.877274
2023-04-27T00:07:57.258Z,50.877308
2023-04-27T00:08:57.231Z,50.877270
2023-04-27T00:09:57.257Z,50.877243
2023-04-27T00:10:57.222Z,50.877190
2023-04-27T00:11:57.203Z,50.877209
2023-04-27T00:12:57.190Z,50.877228
2023-04-27T00:13:57.215Z,50.877254
2023-04-27T00:14:57.192Z,50.877254
2023-04-27T00:15:57.207Z,50.877197
2023-04-27T00:16:57.155Z,50.877216
2023-04-27T00:17:57.174Z,50.877224
2023-04-27T00:18:57.138Z,50.877228
2023-04-27T00:19:57.149Z,50.877247
2023-04-27T00:20:57.150Z,50.877243
2023-04-27T00:21:57.129Z,50.877171
2023-04-27T00:22:57.094Z,50.877148
2023-04-27T00:23:57.093Z,50.877186
2023-04-27T00:24:57.073Z,50.877216
2023-04-27T00:25:57.076Z,50.877239
2023-04-27T00:26:57.091Z,50.877258
2023-04-27T00:27:57.049Z,50.877228
2023-04-27T00:28:57.041Z,50.877228
2023-04-27T00:29:57.043Z,50.877228
2023-04-27T00:30:57.023Z,50.877228
2023-04-27T00:31:57.036Z,50.877228
2023-04-27T00:32:57.002Z,50.877228
2023-04-27T00:33:56.991Z,50.877228
2023-04-27T00:34:56.988Z,50.877228
2023-04-27T00:35:56.967Z,50.877228
2023-04-27T00:36:56.984Z,50.877228
2023-04-27T00:37:56.951Z,50.877228
2023-04-27T00:38:56.949Z,50.877228
2023-04-27T00:39:56.923Z,50.877228
2023-04-27T00:40:56.934Z,50.877228
2023-04-27T00:41:56.933Z,50.877228
2023-04-27T00:42:56.916Z,50.877228
2023-04-27T00:43:56.884Z,50.877228
2023-04-27T00:44:56.897Z,50.877228
2023-04-27T00:45:56.930Z,50.877228
2023-04-27T00:46:56.857Z,50.877228
2023-04-27T00:47:56.967Z,50.877228
2023-04-27T00:48:56.850Z,50.877228
2023-04-27T00:49:56.860Z,50.877228
2023-04-27T00:50:56.816Z,50.877228
2023-04-27T00:51:56.813Z,50.877228
2023-04-27T00:52:56.790Z,50.877228
2023-04-27T00:53:56.854Z,50.877285
2023-04-27T00:54:56.799Z,50.877350
2023-04-27T00:55:56.783Z,50.877342
2023-04-27T00:56:56.768Z,50.877247
2023-04-27T00:57:56.765Z,50.877228
2023-04-27T00:58:56.742Z,50.877243
2023-04-27T00:59:56.751Z,50.877216
2023-04-27T01:00:56.757Z,50.877205
2023-04-27T01:01:56.747Z,50.877228
2023-04-27T01:02:56.938Z,50.877232
2023-04-27T01:03:56.966Z,50.877316
2023-04-27T01:04:56.678Z,50.877258
2023-04-27T01:05:56.680Z,50.877205
2023-04-27T01:06:56.661Z,50.877193
2023-04-27T01:07:56.663Z,50.877205
2023-04-27T01:08:56.638Z,50.877228
2023-04-27T01:09:56.622Z,50.877213
2023-04-27T01:10:56.612Z,50.877239
2023-04-27T01:11:56.610Z,50.877235
2023-04-27T01:12:56.646Z,50.877216
2023-04-27T01:13:56.594Z,50.877209
2023-04-27T01:14:56.582Z,50.877213
2023-04-27T01:15:56.567Z,50.877186
2023-04-27T01:16:56.626Z,50.877209
2023-04-27T01:17:56.589Z,50.877182
2023-04-27T01:18:56.546Z,50.877174
2023-04-27T01:19:56.527Z,50.877132
2023-04-27T01:20:56.519Z,50.877159
2023-04-27T01:21:56.520Z,50.877144
2023-04-27T01:22:56.496Z,50.877197
2023-04-27T01:23:56.504Z,50.877190
2023-04-27T01:24:56.538Z,50.877190
2023-04-27T01:25:56.476Z,50.877186
2023-04-27T01:26:56.496Z,50.877182
2023-04-27T01:27:56.489Z,50.877190
2023-04-27T01:28:56.481Z,50.877193
2023-04-27T01:29:56.441Z,50.877228
2023-04-27T01:30:56.484Z,50.877213
2023-04-27T01:31:56.411Z,50.877209
2023-04-27T01:32:56.442Z,50.877186
2023-04-27T01:33:56.445Z,50.877193
2023-04-27T01:34:56.389Z,50.877125
2023-04-27T01:35:56.391Z,50.877125
2023-04-27T01:36:56.367Z,50.877178
2023-04-27T01:37:56.384Z,50.877197
2023-04-27T01:38:56.383Z,50.877048
2023-04-27T01:39:56.346Z,50.877148
2023-04-27T01:40:56.342Z,50.877125
2023-04-27T01:41:58.387Z,50.877068
2023-04-27T01:42:57.315Z,50.877171
2023-04-27T01:43:56.325Z,50.877190
2023-04-27T01:44:56.308Z,50.877068
2023-04-27T01:45:56.333Z,50.877136
2023-04-27T01:46:56.281Z,50.877151
2023-04-27T01:47:56.330Z,50.877171
2023-04-27T01:48:56.258Z,50.877186
2023-04-27T01:49:56.264Z,50.877186
2023-04-27T01:50:56.267Z,50.877155
2023-04-27T01:51:56.225Z,50.877148
2023-04-27T01:52:56.249Z,50.877159
2023-04-27T01:53:56.209Z,50.877075
2023-04-27T01:54:57.224Z,50.877125
2023-04-27T01:55:56.204Z,50.877132
2023-04-27T01:56:57.212Z,50.877155
2023-04-27T01:57:56.174Z,50.877197
2023-04-27T01:58:56.157Z,50.877163
2023-04-27T01:59:56.266Z,50.877201
2023-04-27T02:00:56.154Z,50.877193
2023-04-27T02:01:56.222Z,50.877182
2023-04-27T02:02:56.205Z,50.877171
2023-04-27T02:03:56.278Z,50.877171
2023-04-27T02:04:56.192Z,50.877182
2023-04-27T02:05:56.100Z,50.877182
2023-04-27T02:06:56.094Z,50.877171
2023-04-27T02:07:56.080Z,50.877163
2023-04-27T02:08:56.084Z,50.877167
2023-04-27T02:09:56.071Z,50.877174
2023-04-27T02:10:56.050Z,50.877190
2023-04-27T02:11:56.046Z,50.877174
2023-04-27T02:12:56.038Z,50.877140
2023-04-27T02:13:56.045Z,50.877132
2023-04-27T02:14:56.029Z,50.877136
2023-04-27T02:15:56.054Z,50.877167
2023-04-27T02:16:55.996Z,50.877171
2023-04-27T02:17:56.101Z,50.877167
2023-04-27T02:18:55.999Z,50.877159
2023-04-27T02:19:55.981Z,50.877144
2023-04-27T02:20:55.971Z,50.877151
2023-04-27T02:21:55.970Z,50.877148
2023-04-27T02:22:55.940Z,50.877171
2023-04-27T02:23:55.922Z,50.877178
2023-04-27T02:24:55.930Z,50.877213
2023-04-27T02:25:55.903Z,50.877209
2023-04-27T02:26:55.906Z,50.877178
2023-04-27T02:27:55.904Z,50.877167
2023-04-27T02:28:55.931Z,50.877125
2023-04-27T02:29:55.893Z,50.877209
2023-04-27T02:30:55.853Z,50.877213
2023-04-27T02:31:55.942Z,50.877163
2023-04-27T02:32:55.859Z,50.877140
2023-04-27T02:33:55.842Z,50.877182
2023-04-27T02:34:55.819Z,50.877171
2023-04-27T02:35:55.822Z,50.877178
2023-04-27T02:36:55.795Z,50.877148
2023-04-27T02:37:55.791Z,50.877201
2023-04-27T02:38:55.779Z,50.877174
2023-04-27T02:39:55.775Z,50.877155
2023-04-27T02:40:55.781Z,50.877148
2023-04-27T02:41:55.767Z,50.877159
2023-04-27T02:42:55.739Z,50.877163
2023-04-27T02:43:55.746Z,50.877151
2023-04-27T02:44:55.721Z,50.877167
2023-04-27T02:45:55.704Z,50.877182
2023-04-27T02:46:55.746Z,50.877174
2023-04-27T02:47:55.781Z,50.877167
2023-04-27T02:48:55.704Z,50.877171
2023-04-27T02:49:55.698Z,50.877171
2023-04-27T02:50:55.663Z,50.877155
2023-04-27T02:51:55.631Z,50.877171
2023-04-27T02:52:55.642Z,50.877171
2023-04-27T02:53:55.643Z,50.877163
2023-04-27T02:54:55.630Z,50.877163
2023-04-27T02:55:55.604Z,50.877159
2023-04-27T02:56:55.631Z,50.877163
2023-04-27T02:57:55.585Z,50.877167
2023-04-27T02:58:55.575Z,50.877129
2023-04-27T02:59:55.627Z,50.877163
2023-04-27T03:00:55.658Z,50.877167
2023-04-27T03:01:55.568Z,50.877144
2023-04-27T03:02:55.687Z,50.877167
2023-04-27T03:03:55.694Z,50.877167
2023-04-27T03:04:55.554Z,50.877186
2023-04-27T03:05:55.534Z,50.877159
2023-04-27T03:06:55.523Z,50.877151
2023-04-27T03:08:27.412Z,50.877163
2023-04-27T03:08:55.501Z,50.877155
2023-04-27T03:09:55.482Z,50.877148
2023-04-27T03:10:55.492Z,50.877113
2023-04-27T03:11:55.464Z,50.877129
2023-04-27T03:12:55.460Z,50.877144
2023-04-27T03:13:55.446Z,50.877125
2023-04-27T03:14:55.421Z,50.877167
2023-04-27T03:15:55.434Z,50.877186
2023-04-27T03:16:55.453Z,50.877167
2023-04-27T03:17:55.481Z,50.877178
2023-04-27T03:18:55.396Z,50.877174
2023-04-27T03:19:55.461Z,50.877171
2023-04-27T03:20:55.375Z,50.877167
2023-04-27T03:21:55.366Z,50.877186
2023-04-27T03:22:55.394Z,50.877186
2023-04-27T03:23:55.363Z,50.877178
2023-04-27T03:24:55.333Z,50.877186
2023-04-27T03:25:55.360Z,50.877193
2023-04-27T03:26:55.323Z,50.877163
2023-04-27T03:27:55.316Z,50.877213
2023-04-27T03:28:55.317Z,50.877186
2023-04-27T03:29:55.286Z,50.877186
2023-04-27T03:30:55.292Z,50.877197
2023-04-27T03:31:55.315Z,50.877201
2023-04-27T03:32:55.305Z,50.877205
2023-04-27T03:33:55.270Z,50.877197
2023-04-27T03:34:55.292Z,50.877201
2023-04-27T03:35:55.242Z,50.877197
2023-04-27T03:36:55.222Z,50.877209
2023-04-27T03:37:55.220Z,50.877174
2023-04-27T03:38:55.210Z,50.877193
2023-04-27T03:39:55.219Z,50.877251
2023-04-27T03:40:55.202Z,50.877228
2023-04-27T03:41:55.228Z,50.877213
2023-04-27T03:42:55.484Z,50.877159
2023-04-27T03:43:55.231Z,50.877216
2023-04-27T03:44:55.157Z,50.877243
2023-04-27T03:45:55.232Z,50.877178
2023-04-27T03:46:55.125Z,50.877232
2023-04-27T03:47:55.167Z,50.877247
2023-04-27T03:48:55.142Z,50.877171
2023-04-27T03:49:55.111Z,50.877182
2023-04-27T03:50:55.090Z,50.877151
2023-04-27T03:51:55.141Z,50.877171
2023-04-27T03:52:55.066Z,50.877228
2023-04-27T03:53:55.080Z,50.877186
2023-04-27T03:54:55.059Z,50.877190
2023-04-27T03:55:55.041Z,50.877186
2023-04-27T03:56:55.025Z,50.877243
2023-04-27T03:57:55.048Z,50.877266
2023-04-27T03:58:55.037Z,50.877251
2023-04-27T03:59:55.028Z,50.877228
2023-04-27T04:00:54.993Z,50.877239
2023-04-27T04:01:55.040Z,50.877190
2023-04-27T04:02:55.123Z,50.877193
2023-04-27T04:03:55.132Z,50.877213
2023-04-27T04:04:55.060Z,50.877201
2023-04-27T04:05:54.985Z,50.877243
2023-04-27T04:06:54.923Z,50.877163
2023-04-27T04:07:54.918Z,50.877171
2023-04-27T04:08:54.945Z,50.877186
2023-04-27T04:09:54.908Z,50.877190
2023-04-27T04:10:54.895Z,50.877247
2023-04-27T04:11:54.882Z,50.877171
2023-04-27T04:12:54.867Z,50.877182
2023-04-27T04:13:54.887Z,50.877197
2023-04-27T04:14:54.890Z,50.877174
2023-04-27T04:15:54.867Z,50.877190
2023-04-27T04:16:54.867Z,50.877197
2023-04-27T04:17:54.863Z,50.877174
2023-04-27T04:18:54.822Z,50.877186
2023-04-27T04:19:54.825Z,50.877213
2023-04-27T04:20:54.829Z,50.877190
2023-04-27T04:21:54.820Z,50.877193
2023-04-27T04:22:54.787Z,50.877190
2023-04-27T04:23:54.776Z,50.877205
2023-04-27T04:24:54.759Z,50.877193
2023-04-27T04:25:54.765Z,50.877205
2023-04-27T04:26:54.744Z,50.877216
2023-04-27T04:27:54.736Z,50.877205
2023-04-27T04:28:54.719Z,50.877201
2023-04-27T04:29:54.716Z,50.877193
2023-04-27T04:30:54.808Z,50.877224
2023-04-27T04:31:54.691Z,50.877209
2023-04-27T04:32:54.706Z,50.877213
2023-04-27T04:33:54.687Z,50.877220
2023-04-27T04:34:54.692Z,50.877213
2023-04-27T04:35:54.686Z,50.877220
2023-04-27T04:36:54.629Z,50.877213
2023-04-27T04:37:54.635Z,50.877209
2023-04-27T04:38:54.607Z,50.877197
2023-04-27T04:39:54.649Z,50.877209
2023-04-27T04:40:54.614Z,50.877205
2023-04-27T04:41:54.592Z,50.877213
2023-04-27T04:42:54.582Z,50.877197
2023-04-27T04:43:54.575Z,50.877193
2023-04-27T04:44:54.573Z,50.877224
2023-04-27T04:45:54.548Z,50.877205
2023-04-27T04:46:54.642Z,50.877178
2023-04-27T04:47:54.645Z,50.877197
2023-04-27T04:48:54.945Z,50.877201
2023-04-27T04:49:55.522Z,50.877144
2023-04-27T04:50:54.511Z,50.877190
2023-04-27T04:51:54.520Z,50.877201
2023-04-27T04:52:54.503Z,50.877197
2023-04-27T04:53:54.478Z,50.877224
2023-04-27T04:54:54.489Z,50.877213
2023-04-27T04:55:54.444Z,50.877182
2023-04-27T04:56:54.446Z,50.877163
2023-04-27T04:57:54.441Z,50.877205
2023-04-27T04:58:54.419Z,50.877216
2023-04-27T04:59:54.444Z,50.877197
2023-04-27T05:00:54.432Z,50.877220
2023-04-27T05:01:54.407Z,50.877193
2023-04-27T05:02:54.595Z,50.877235
2023-04-27T05:03:54.481Z,50.877190
2023-04-27T05:04:54.577Z,50.877190
2023-04-27T05:05:54.384Z,50.877205
2023-04-27T05:06:54.347Z,50.877190
2023-04-27T05:07:54.353Z,50.877201
2023-04-27T05:08:54.356Z,50.877209
2023-04-27T05:09:54.321Z,50.877205
2023-04-27T05:10:54.338Z,50.877220
2023-04-27T05:11:54.305Z,50.877193
2023-04-27T05:12:54.292Z,50.877232
2023-04-27T05:13:54.289Z,50.877224
2023-04-27T05:14:54.277Z,50.877209
2023-04-27T05:15:54.306Z,50.877232
2023-04-27T05:16:54.271Z,50.877220
2023-04-27T05:17:54.376Z,50.877220
2023-04-27T05:18:54.227Z,50.877182
2023-04-27T05:19:54.246Z,50.877186
2023-04-27T05:20:54.207Z,50.877209
2023-04-27T05:21:54.242Z,50.877213
2023-04-27T05:22:54.211Z,50.877201
2023-04-27T05:23:54.179Z,50.877151
2023-04-27T05:24:54.163Z,50.877132
2023-04-27T05:25:54.154Z,50.877163
2023-04-27T05:26:54.163Z,50.877167
2023-04-27T05:27:54.153Z,50.877197
2023-04-27T05:28:54.152Z,50.877205
2023-04-27T05:29:54.131Z,50.877213
2023-04-27T05:30:54.147Z,50.877213
2023-04-27T05:31:54.174Z,50.877197
2023-04-27T05:32:54.121Z,50.877197
2023-04-27T05:33:54.075Z,50.877201
2023-04-27T05:34:54.111Z,50.877213
2023-04-27T05:35:54.058Z,50.877201
2023-04-27T05:36:54.066Z,50.877205
2023-04-27T05:37:54.046Z,50.877197
2023-04-27T05:38:54.031Z,50.877209
2023-04-27T05:39:54.047Z,50.877232
2023-04-27T05:40:55.496Z,50.877266
2023-04-27T05:41:55.007Z,50.877243
2023-04-27T05:42:53.989Z,50.877232
2023-04-27T05:43:53.990Z,50.877220
2023-04-27T05:44:53.993Z,50.877216
2023-04-27T05:45:54.035Z,50.877228
2023-04-27T05:46:53.948Z,50.877262
2023-04-27T05:47:54.023Z,50.877232
2023-04-27T05:48:53.937Z,50.877197
2023-04-27T05:49:53.926Z,50.877220
2023-04-27T05:50:53.935Z,50.877193
2023-04-27T05:51:53.920Z,50.877213
2023-04-27T05:52:53.892Z,50.877193
2023-04-27T05:53:53.887Z,50.877182
2023-04-27T05:54:53.895Z,50.877213
2023-04-27T05:55:53.879Z,50.877197
2023-04-27T05:56:53.862Z,50.877220
2023-04-27T05:58:04.583Z,50.877167
2023-04-27T05:58:54.855Z,50.877178
2023-04-27T05:59:53.819Z,50.877197
2023-04-27T06:00:53.835Z,50.877205
2023-04-27T06:01:53.813Z,50.877201
2023-04-27T06:02:53.857Z,50.877190
2023-04-27T06:03:53.934Z,50.877186
2023-04-27T06:04:53.808Z,50.877193
2023-04-27T06:05:53.783Z,50.877174
2023-04-27T06:06:53.778Z,50.877167
2023-04-27T06:07:53.796Z,50.877174
2023-04-27T06:08:53.780Z,50.877209
2023-04-27T06:09:53.753Z,50.877220
2023-04-27T06:10:53.719Z,50.877209
2023-04-27T06:11:53.708Z,50.877190
2023-04-27T06:12:53.706Z,50.877228
2023-04-27T06:13:53.705Z,50.877213
2023-04-27T06:14:53.676Z,50.877216
2023-04-27T06:15:53.742Z,50.877224
2023-04-27T06:16:53.653Z,50.877193
2023-04-27T06:17:53.705Z,50.877197
2023-04-27T06:18:53.680Z,50.877178
2023-04-27T06:19:53.634Z,50.877190
2023-04-27T06:20:53.624Z,50.877182
2023-04-27T06:21:53.608Z,50.877174
2023-04-27T06:22:53.645Z,50.877151
2023-04-27T06:23:53.600Z,50.877155
2023-04-27T06:24:53.581Z,50.877213
2023-04-27T06:25:53.551Z,50.877190
2023-04-27T06:26:53.563Z,50.877209
2023-04-27T06:27:53.555Z,50.877193
2023-04-27T06:28:53.562Z,50.877197
2023-04-27T06:29:53.534Z,50.877190
2023-04-27T06:30:53.526Z,50.877136
2023-04-27T06:31:53.551Z,50.877167
2023-04-27T06:32:53.559Z,50.877151
2023-04-27T06:33:53.506Z,50.877190
2023-04-27T06:34:53.490Z,50.877182
2023-04-27T06:35:53.514Z,50.877178
2023-04-27T06:36:53.483Z,50.877201
2023-04-27T06:37:53.470Z,50.877201
2023-04-27T06:38:53.441Z,50.877209
2023-04-27T06:39:53.455Z,50.877186
2023-04-27T06:40:53.450Z,50.877178
2023-04-27T06:41:53.406Z,50.877182
2023-04-27T06:42:53.431Z,50.877174
2023-04-27T06:43:53.395Z,50.877190
2023-04-27T06:44:53.390Z,50.877155
2023-04-27T06:45:53.536Z,50.877163
2023-04-27T06:46:53.377Z,50.877174
2023-04-27T06:47:53.421Z,50.877171
2023-04-27T06:48:53.349Z,50.877159
2023-04-27T06:49:53.347Z,50.877151
2023-04-27T06:50:53.353Z,50.877163
2023-04-27T06:51:53.335Z,50.877155
2023-04-27T06:52:53.419Z,50.877155
2023-04-27T06:53:53.294Z,50.877163
2023-04-27T06:54:53.301Z,50.877159
2023-04-27T06:55:53.290Z,50.877163
2023-04-27T06:56:53.285Z,50.877174
2023-04-27T06:57:53.293Z,50.877174
2023-04-27T06:58:53.269Z,50.877167
2023-04-27T06:59:53.242Z,50.877182
2023-04-27T07:00:53.242Z,50.877163
2023-04-27T07:01:53.309Z,50.877148
2023-04-27T07:02:53.309Z,50.877155
2023-04-27T07:03:53.338Z,50.877148
2023-04-27T07:04:53.221Z,50.877159
2023-04-27T07:05:53.217Z,50.877163
2023-04-27T07:06:53.193Z,50.877163
2023-04-27T07:07:53.178Z,50.877167
2023-04-27T07:08:53.179Z,50.877171
2023-04-27T07:09:53.160Z,50.877178
2023-04-27T07:10:53.441Z,50.877193
2023-04-27T07:11:53.133Z,50.877190
2023-04-27T07:12:53.162Z,50.877193
2023-04-27T07:13:53.117Z,50.877171
2023-04-27T07:14:53.111Z,50.877190
2023-04-27T07:15:53.125Z,50.877174
2023-04-27T07:16:53.085Z,50.877182
2023-04-27T07:17:53.100Z,50.877182
2023-04-27T07:18:53.152Z,50.877167
2023-04-27T07:19:53.050Z,50.877159
2023-04-27T07:20:53.055Z,50.877167
2023-04-27T07:21:53.037Z,50.877197
2023-04-27T07:22:53.049Z,50.877159
2023-04-27T07:23:54.438Z,50.877167
2023-04-27T07:24:53.048Z,50.877132
2023-04-27T07:25:53.038Z,50.877178
2023-04-27T07:26:52.995Z,50.877178
2023-04-27T07:27:52.977Z,50.877193
2023-04-27T07:28:52.966Z,50.877151
2023-04-27T07:29:52.959Z,50.877174
2023-04-27T07:30:52.974Z,50.877193
2023-04-27T07:31:53.076Z,50.877186
2023-04-27T07:32:53.003Z,50.877193
2023-04-27T07:33:52.933Z,50.877182
2023-04-27T07:34:54.315Z,50.877216
2023-04-27T07:35:54.061Z,50.877213
2023-04-27T07:36:52.919Z,50.877201
2023-04-27T07:37:52.881Z,50.877205
2023-04-27T07:38:52.887Z,50.877190
2023-04-27T07:39:52.865Z,50.877174
2023-04-27T07:40:52.854Z,50.877174
2023-04-27T07:41:52.927Z,50.877174
2023-04-27T07:42:52.842Z,50.877190
2023-04-27T07:43:52.824Z,50.877209
2023-04-27T07:44:52.923Z,50.877193
2023-04-27T07:45:52.825Z,50.877144
2023-04-27T07:46:52.798Z,50.877140
2023-04-27T07:47:52.790Z,50.877167
2023-04-27T07:48:52.798Z,50.877148
2023-04-27T07:49:52.759Z,50.877167
2023-04-27T07:50:52.751Z,50.877129
2023-04-27T07:51:52.743Z,50.877209
2023-04-27T07:52:53.765Z,50.877171
2023-04-27T07:53:52.766Z,50.877129
2023-04-27T07:54:52.742Z,50.877151
2023-04-27T07:55:52.731Z,50.877136
2023-04-27T07:56:52.706Z,50.877159
2023-04-27T07:57:52.704Z,50.877163
2023-04-27T07:58:52.687Z,50.877186
2023-04-27T07:59:52.714Z,50.877209
2023-04-27T08:00:52.658Z,50.877125
2023-04-27T08:01:54.359Z,50.877190
2023-04-27T08:02:52.925Z,50.877178
2023-04-27T08:03:52.853Z,50.877178
2023-04-27T08:04:52.834Z,50.877174
2023-04-27T08:05:52.974Z,50.877201
2023-04-27T08:06:53.190Z,50.877243
2023-04-27T08:07:53.138Z,50.877174
2023-04-27T08:08:52.577Z,50.877117
2023-04-27T08:09:52.612Z,50.877350
2023-04-27T08:10:52.571Z,50.877369
2023-04-27T08:11:52.565Z,50.877365
2023-04-27T08:12:52.545Z,50.877319
2023-04-27T08:13:52.579Z,50.877281
2023-04-27T08:14:52.513Z,50.877213
2023-04-27T08:15:52.583Z,50.877125
2023-04-27T08:16:52.544Z,50.877155
2023-04-27T08:17:52.575Z,50.877178
2023-04-27T08:18:52.507Z,50.877026
2023-04-27T08:19:52.493Z,50.876938
2023-04-27T08:20:52.462Z,50.877045
2023-04-27T08:21:52.480Z,50.877140
2023-04-27T08:22:52.455Z,50.877182
2023-04-27T08:23:52.445Z,50.877182
2023-04-27T08:24:52.438Z,50.877174
2023-04-27T08:25:52.423Z,50.877186
2023-04-27T08:26:52.427Z,50.877193
2023-04-27T08:27:52.409Z,50.877186
2023-04-27T08:28:52.388Z,50.877205
2023-04-27T08:29:52.402Z,50.877186
2023-04-27T08:30:53.490Z,50.877193
2023-04-27T08:31:54.361Z,50.877163
2023-04-27T08:32:52.422Z,50.877155
2023-04-27T08:33:52.344Z,50.877178
2023-04-27T08:34:52.341Z,50.877163
2023-04-27T08:35:52.353Z,50.877193
2023-04-27T08:36:52.323Z,50.877171
2023-04-27T08:37:52.306Z,50.877213
2023-04-27T08:38:52.299Z,50.877193
2023-04-27T08:39:52.417Z,50.877159
2023-04-27T08:40:52.283Z,50.877213
2023-04-27T08:41:52.284Z,50.877220
2023-04-27T08:42:52.254Z,50.877190
2023-04-27T08:43:52.315Z,50.877193
2023-04-27T08:44:52.229Z,50.877224
2023-04-27T08:45:52.287Z,50.877216
2023-04-27T08:46:52.288Z,50.877224
2023-04-27T08:47:52.222Z,50.877213
2023-04-27T08:48:52.193Z,50.877235
2023-04-27T08:49:52.190Z,50.877239
2023-04-27T08:50:52.190Z,50.877235
2023-04-27T08:51:52.163Z,50.877239
2023-04-27T08:52:52.186Z,50.877254
2023-04-27T08:53:52.153Z,50.877239
2023-04-27T08:54:52.143Z,50.877213
2023-04-27T08:55:52.194Z,50.877228
2023-04-27T08:56:52.141Z,50.877239
2023-04-27T08:57:52.103Z,50.877251
2023-04-27T08:58:52.179Z,50.877251
2023-04-27T08:59:52.096Z,50.877243
2023-04-27T09:00:52.678Z,50.877224
2023-04-27T09:01:53.269Z,50.877232
2023-04-27T09:02:52.158Z,50.877239
2023-04-27T09:03:52.162Z,50.877254
2023-04-27T09:04:52.142Z,50.877228
2023-04-27T09:06:03.711Z,50.877151
2023-04-27T09:06:54.046Z,50.877232
2023-04-27T09:07:52.023Z,50.877331
2023-04-27T09:08:52.002Z,50.877277
2023-04-27T09:09:51.991Z,50.877262
2023-04-27T09:10:51.977Z,50.877232
2023-04-27T09:11:51.966Z,50.877228
2023-04-27T09:12:52.064Z,50.877171
2023-04-27T09:13:51.966Z,50.877159
2023-04-27T09:14:51.934Z,50.877151
2023-04-27T09:15:51.963Z,50.877239
2023-04-27T09:16:52.000Z,50.877209
2023-04-27T09:17:51.932Z,50.877148
2023-04-27T09:18:51.924Z,50.877247
2023-04-27T09:19:51.895Z,50.877171
2023-04-27T09:20:51.946Z,50.877209
2023-04-27T09:21:51.897Z,50.877216
2023-04-27T09:22:51.881Z,50.877239
2023-04-27T09:23:51.862Z,50.877178
2023-04-27T09:24:51.864Z,50.877102
2023-04-27T09:25:51.860Z,50.877144
2023-04-27T09:26:51.816Z,50.877144
2023-04-27T09:27:51.830Z,50.877144
2023-04-27T09:28:51.816Z,50.877144
2023-04-27T09:29:52.795Z,50.877144
2023-04-27T09:30:51.814Z,50.877144
2023-04-27T09:31:51.843Z,50.877144
2023-04-27T09:32:51.788Z,50.877144
2023-04-27T09:33:51.759Z,50.877144
2023-04-27T09:34:51.770Z,50.877144
2023-04-27T09:35:51.745Z,50.877178
2023-04-27T09:36:51.823Z,50.877182
2023-04-27T09:37:51.730Z,50.877193
2023-04-27T09:38:51.717Z,50.877186
2023-04-27T09:39:51.734Z,50.877193
2023-04-27T09:40:51.696Z,50.877163
2023-04-27T09:41:51.686Z,50.877151
2023-04-27T09:42:51.682Z,50.877144
2023-04-27T09:43:51.684Z,50.877159
2023-04-27T09:44:51.646Z,50.877182
2023-04-27T09:45:51.697Z,50.877197
2023-04-27T09:46:51.672Z,50.877190
2023-04-27T09:47:51.678Z,50.877174
2023-04-27T09:48:51.642Z,50.877163
2023-04-27T09:49:51.601Z,50.877171
2023-04-27T09:50:51.599Z,50.877159
2023-04-27T09:51:51.628Z,50.877174
2023-04-27T09:52:51.604Z,50.877182
2023-04-27T09:53:51.590Z,50.877178
2023-04-27T09:54:51.561Z,50.877163
2023-04-27T09:55:51.728Z,50.877159
2023-04-27T09:56:52.564Z,50.877159
2023-04-27T09:57:51.540Z,50.877171
2023-04-27T09:58:51.520Z,50.877205
2023-04-27T09:59:51.517Z,50.877224
2023-04-27T10:00:51.524Z,50.877209
2023-04-27T10:01:51.542Z,50.877220
2023-04-27T10:02:53.661Z,50.877232
2023-04-27T10:03:52.570Z,50.877216
2023-04-27T10:04:51.486Z,50.877209
2023-04-27T10:05:51.489Z,50.877201
2023-04-27T10:06:51.441Z,50.877197
2023-04-27T10:07:51.421Z,50.877209
2023-04-27T10:08:51.408Z,50.877205
2023-04-27T10:09:51.450Z,50.877201
2023-04-27T10:10:51.395Z,50.877193
2023-04-27T10:11:51.387Z,50.877216
2023-04-27T10:12:51.408Z,50.877193
2023-04-27T10:13:52.330Z,50.877213
2023-04-27T10:14:51.360Z,50.877182
2023-04-27T10:15:51.445Z,50.877209
2023-04-27T10:16:51.379Z,50.877193
2023-04-27T10:17:51.371Z,50.877205
2023-04-27T10:18:51.320Z,50.877190
2023-04-27T10:19:53.801Z,50.877213
2023-04-27T10:20:51.331Z,50.877201
2023-04-27T10:21:51.298Z,50.877213
2023-04-27T10:22:51.394Z,50.877201
2023-04-27T10:23:51.316Z,50.877216
2023-04-27T10:24:51.260Z,50.877216
2023-04-27T10:25:51.284Z,50.877216
2023-04-27T10:26:51.243Z,50.877224
2023-04-27T10:27:51.239Z,50.877197
2023-04-27T10:28:51.229Z,50.877209
2023-04-27T10:29:51.221Z,50.877205
2023-04-27T10:30:51.254Z,50.877205
2023-04-27T10:31:51.212Z,50.877197
2023-04-27T10:32:51.316Z,50.877213
2023-04-27T10:33:51.174Z,50.877155
2023-04-27T10:34:51.178Z,50.877197
2023-04-27T10:35:51.161Z,50.877174
2023-04-27T10:36:51.148Z,50.877209
2023-04-27T10:37:51.155Z,50.877190
2023-04-27T10:38:51.180Z,50.877193
2023-04-27T10:39:52.239Z,50.877159
2023-04-27T10:40:51.107Z,50.877193
2023-04-27T10:41:51.132Z,50.877182
2023-04-27T10:42:51.107Z,50.877182
2023-04-27T10:43:51.089Z,50.877190
2023-04-27T10:44:51.136Z,50.877171
2023-04-27T10:45:51.103Z,50.877171
2023-04-27T10:46:51.081Z,50.877167
2023-04-27T10:47:51.106Z,50.877193
2023-04-27T10:48:51.033Z,50.877186
2023-04-27T10:49:51.027Z,50.877201
2023-04-27T10:50:51.047Z,50.877178
2023-04-27T10:51:51.011Z,50.877171
2023-04-27T10:52:51.057Z,50.877186
2023-04-27T10:53:51.062Z,50.877132
2023-04-27T10:54:50.994Z,50.877163
2023-04-27T10:55:50.979Z,50.877178
2023-04-27T10:56:50.951Z,50.877186
2023-04-27T10:57:51.058Z,50.877178
2023-04-27T10:58:50.956Z,50.877155
2023-04-27T10:59:50.953Z,50.877167
2023-04-27T11:00:50.920Z,50.877174
2023-04-27T11:01:50.941Z,50.877167
2023-04-27T11:02:50.932Z,50.877132
2023-04-27T11:03:50.982Z,50.877129
2023-04-27T11:04:50.987Z,50.877178
2023-04-27T11:05:50.942Z,50.877182
2023-04-27T11:06:50.871Z,50.877186
2023-04-27T11:07:50.852Z,50.877186
2023-04-27T11:08:50.866Z,50.877193
2023-04-27T11:09:50.820Z,50.877186
2023-04-27T11:10:50.844Z,50.877174
2023-04-27T11:11:50.830Z,50.877178
2023-04-27T11:12:50.831Z,50.877174
2023-04-27T11:13:50.835Z,50.877155
2023-04-27T11:14:50.779Z,50.877171
2023-04-27T11:15:50.855Z,50.877174
2023-04-27T11:16:50.775Z,50.877193
2023-04-27T11:17:50.787Z,50.877155
2023-04-27T11:18:50.761Z,50.877144
2023-04-27T11:19:50.728Z,50.877167
2023-04-27T11:20:50.716Z,50.877171
2023-04-27T11:21:50.740Z,50.877182
2023-04-27T11:22:50.693Z,50.877178
2023-04-27T11:23:50.710Z,50.877193
2023-04-27T11:24:50.698Z,50.877167